Time;durP1;ratioP1;P1;durP2;ratioP2;P2;SDS_P1;SDS_P2;PMS_P1;PMS_P2;Temp;Humidity;BMP_temperature;BMP_pressure;BME280_temperature;BME280_humidity;BME280_pressure;Samples;Min_cycle;Max_cycle;Signal;HPM_P1;HPM_P2
2022/11/06 00:00:31;;;;;;;9.70;5.13;;;;;;;;;;5075411;28;20259;-69
2022/11/06 00:02:58;;;;;;;8.13;4.93;;;;;;;;;;5075621;28;20174;-70
2022/11/06 00:08:09;;;;;;;9.60;5.77;;;;;;;;;;5075727;28;20220;-69
2022/11/06 00:10:35;;;;;;;6.53;5.00;;;;;;;;;;5074912;28;20586;-69
2022/11/06 00:13:01;;;;;;;12.90;5.93;;;;;;;;;;5074941;28;20181;-69
2022/11/06 00:15:27;;;;;;;11.03;5.43;;;;;;;;;;5073693;28;20221;-70
2022/11/06 00:17:53;;;;;;;15.23;6.27;;;;;;;;;;5075354;28;20208;-70
2022/11/06 00:20:19;;;;;;;10.40;6.43;;;;;;;;;;5074669;28;20669;-70
2022/11/06 00:22:45;;;;;;;12.37;6.30;;;;;;;;;;5073459;28;20186;-70
2022/11/06 00:25:11;;;;;;;11.57;5.87;;;;;;;;;;5073414;28;20580;-70
2022/11/06 00:27:38;;;;;;;16.67;7.07;;;;;;;;;;5074457;28;20178;-71
2022/11/06 00:30:08;;;;;;;11.03;6.23;;;;;;;;;;5074458;28;20201;-70
2022/11/06 00:32:34;;;;;;;12.90;6.60;;;;;;;;;;5074500;28;20189;-70
2022/11/06 00:35:00;;;;;;;13.33;6.63;;;;;;;;;;5077258;28;20198;-72
2022/11/06 00:37:26;;;;;;;13.27;7.27;;;;;;;;;;5077838;28;20177;-71
2022/11/06 00:39:52;;;;;;;11.00;6.40;;;;;;;;;;5077029;28;20257;-70
2022/11/06 00:42:18;;;;;;;12.63;6.83;;;;;;;;;;5078721;28;20181;-71
2022/11/06 00:44:44;;;;;;;13.73;7.40;;;;;;;;;;5078221;28;20629;-70
2022/11/06 00:47:11;;;;;;;13.57;6.87;;;;;;;;;;5098082;22;20773;-66
2022/11/06 00:49:37;;;;;;;17.50;8.37;;;;;;;;;;5076214;28;20202;-66
2022/11/06 00:52:03;;;;;;;14.50;7.53;;;;;;;;;;5058072;28;20265;-67
2022/11/06 00:54:29;;;;;;;14.87;7.37;;;;;;;;;;5076586;28;20677;-66
2022/11/06 00:56:55;;;;;;;14.63;7.40;;;;;;;;;;5077450;28;20564;-67
2022/11/06 00:59:21;;;;;;;15.43;7.40;;;;;;;;;;5058775;28;20331;-66
2022/11/06 01:01:47;;;;;;;15.23;6.90;;;;;;;;;;5075982;28;20190;-65
2022/11/06 01:04:15;;;;;;;9.03;6.10;;;;;;;;;;5057987;28;20207;-66
2022/11/06 01:06:43;;;;;;;14.03;6.23;;;;;;;;;;5057727;28;20198;-65
2022/11/06 01:09:10;;;;;;;12.37;5.20;;;;;;;;;;5075846;28;20201;-65
2022/11/06 01:11:41;;;;;;;14.17;6.00;;;;;;;;;;5075747;28;20188;-66
2022/11/06 01:14:08;;;;;;;7.93;5.20;;;;;;;;;;5057500;28;20172;-67
2022/11/06 01:16:34;;;;;;;7.27;5.13;;;;;;;;;;5057756;28;20205;-66
2022/11/06 01:19:00;;;;;;;9.73;5.23;;;;;;;;;;5075552;28;20188;-66
2022/11/06 01:21:28;;;;;;;9.33;5.10;;;;;;;;;;5057345;28;20572;-64
2022/11/06 01:23:55;;;;;;;8.93;4.63;;;;;;;;;;5075361;28;20247;-70
2022/11/06 01:26:22;;;;;;;8.60;5.10;;;;;;;;;;5075277;28;20197;-66
2022/11/06 01:28:48;;;;;;;7.53;5.07;;;;;;;;;;5075284;28;20232;-67
2022/11/06 01:31:15;;;;;;;8.97;6.00;;;;;;;;;;5057250;28;20174;-67
2022/11/06 01:33:42;;;;;;;10.27;6.60;;;;;;;;;;5057187;28;20277;-67
2022/11/06 01:36:09;;;;;;;11.23;6.53;;;;;;;;;;5075049;28;20184;-65
2022/11/06 01:38:35;;;;;;;10.47;6.80;;;;;;;;;;5057178;28;20206;-67
2022/11/06 01:41:01;;;;;;;12.30;7.60;;;;;;;;;;5057392;28;20200;-66
2022/11/06 01:43:46;;;;;;;11.73;7.07;;;;;;;;;;5057562;28;20267;-66
2022/11/06 01:46:12;;;;;;;12.90;7.83;;;;;;;;;;5075229;28;20230;-67
2022/11/06 01:48:39;;;;;;;12.37;8.10;;;;;;;;;;5075951;28;20213;-65
2022/11/06 01:51:05;;;;;;;12.37;8.40;;;;;;;;;;5075517;28;20657;-67
2022/11/06 01:53:31;;;;;;;10.00;8.27;;;;;;;;;;5074928;28;20264;-67
2022/11/06 01:55:59;;;;;;;14.57;8.13;;;;;;;;;;5074882;28;20637;-67
2022/11/06 01:58:26;;;;;;;14.63;8.20;;;;;;;;;;5074716;28;20234;-67
2022/11/06 02:00:52;;;;;;;16.30;8.37;;;;;;;;;;5074893;28;20630;-67
2022/11/06 02:03:18;;;;;;;14.20;7.63;;;;;;;;;;5056626;28;20615;-66
2022/11/06 02:05:45;;;;;;;16.40;7.67;;;;;;;;;;5056667;28;20231;-67
2022/11/06 02:08:14;;;;;;;13.97;8.10;;;;;;;;;;5074984;28;20779;-67
2022/11/06 02:10:40;;;;;;;10.90;7.70;;;;;;;;;;5056730;28;20181;-67
2022/11/06 02:13:12;;;;;;;8.83;6.07;;;;;;;;;;5074531;28;20498;-66
2022/11/06 02:15:51;;;;;;;15.90;7.33;;;;;;;;;;5056959;28;20611;-67
2022/11/06 02:18:17;;;;;;;13.23;6.63;;;;;;;;;;5056318;28;20248;-66
2022/11/06 02:20:46;;;;;;;13.73;7.43;;;;;;;;;;5057077;28;20658;-66
2022/11/06 02:23:11;;;;;;;9.63;6.40;;;;;;;;;;5074389;28;20711;-67
2022/11/06 02:25:56;;;;;;;13.23;6.73;;;;;;;;;;5056617;28;20216;-66
2022/11/06 02:28:38;;;;;;;11.80;6.83;;;;;;;;;;5056208;28;20201;-66
2022/11/06 02:31:07;;;;;;;10.03;6.30;;;;;;;;;;5056509;28;20181;-66
2022/11/06 02:33:35;;;;;;;11.10;6.57;;;;;;;;;;5056271;28;20189;-65
2022/11/06 02:36:08;;;;;;;10.47;6.20;;;;;;;;;;5074329;28;20174;-66
2022/11/06 02:38:36;;;;;;;15.27;7.00;;;;;;;;;;5073961;28;20674;-66
2022/11/06 02:41:04;;;;;;;13.33;6.73;;;;;;;;;;5073957;28;20192;-67
2022/11/06 02:43:34;;;;;;;14.13;6.80;;;;;;;;;;5073987;28;20180;-70
2022/11/06 02:46:08;;;;;;;13.73;6.37;;;;;;;;;;5074438;28;20169;-67
2022/11/06 02:48:37;;;;;;;11.87;6.17;;;;;;;;;;5073649;28;20689;-67
2022/11/06 02:51:04;;;;;;;10.70;6.43;;;;;;;;;;5073977;28;20300;-67
2022/11/06 02:53:31;;;;;;;10.67;6.13;;;;;;;;;;5055994;28;20227;-67
2022/11/06 02:55:58;;;;;;;10.93;6.20;;;;;;;;;;5055858;28;20182;-67
2022/11/06 02:58:35;;;;;;;9.07;5.10;;;;;;;;;;5073515;28;20198;-66
2022/11/06 03:01:11;;;;;;;13.10;5.57;;;;;;;;;;5074007;28;20165;-66
2022/11/06 03:03:40;;;;;;;10.50;5.67;;;;;;;;;;5055804;28;20181;-66
2022/11/06 03:06:09;;;;;;;10.30;5.97;;;;;;;;;;5073566;28;20606;-66
2022/11/06 03:08:41;;;;;;;11.87;6.23;;;;;;;;;;5055688;28;20210;-67
2022/11/06 03:11:16;;;;;;;14.00;6.47;;;;;;;;;;5073869;28;20182;-65
2022/11/06 03:13:48;;;;;;;11.37;5.97;;;;;;;;;;5055686;28;20177;-67
2022/11/06 03:16:23;;;;;;;12.03;5.60;;;;;;;;;;5073407;28;20174;-65
2022/11/06 03:19:01;;;;;;;10.43;5.53;;;;;;;;;;5073447;28;20177;-66
2022/11/06 03:21:31;;;;;;;14.93;5.73;;;;;;;;;;5073445;28;20181;-67
2022/11/06 03:24:01;;;;;;;12.13;6.17;;;;;;;;;;5073717;28;20192;-66
2022/11/06 03:26:33;;;;;;;12.27;5.73;;;;;;;;;;5073234;28;20188;-67
2022/11/06 03:29:20;;;;;;;15.40;6.13;;;;;;;;;;5073240;28;20616;-65
2022/11/06 03:31:49;;;;;;;12.97;6.50;;;;;;;;;;5055208;28;20174;-67
2022/11/06 03:34:19;;;;;;;11.37;6.00;;;;;;;;;;5055395;28;20177;-65
2022/11/06 03:36:47;;;;;;;11.73;5.37;;;;;;;;;;5073536;28;20571;-65
2022/11/06 03:39:20;;;;;;;10.80;5.13;;;;;;;;;;5073244;28;20178;-67
2022/11/06 03:41:49;;;;;;;11.90;5.43;;;;;;;;;;5073473;28;20201;-66
2022/11/06 03:44:17;;;;;;;9.57;4.60;;;;;;;;;;5073229;28;20184;-66
2022/11/06 03:46:46;;;;;;;9.07;4.00;;;;;;;;;;5055010;28;20239;-66
2022/11/06 03:49:15;;;;;;;12.07;4.63;;;;;;;;;;5073304;28;20202;-66
2022/11/06 03:51:49;;;;;;;10.67;5.33;;;;;;;;;;5055104;28;20178;-69
2022/11/06 03:54:18;;;;;;;11.40;5.93;;;;;;;;;;5073070;28;20243;-66
2022/11/06 03:56:48;;;;;;;9.03;5.30;;;;;;;;;;5055019;28;20200;-66
2022/11/06 03:59:18;;;;;;;11.90;5.00;;;;;;;;;;5073098;28;20193;-66
2022/11/06 04:01:46;;;;;;;10.77;4.53;;;;;;;;;;5073603;28;20227;-65
2022/11/06 04:04:15;;;;;;;10.50;5.03;;;;;;;;;;5073061;28;20242;-65
2022/11/06 04:06:57;;;;;;;9.40;4.80;;;;;;;;;;5073028;28;20309;-65
2022/11/06 04:14:58;;;;;;;15.03;6.97;;;;;;;;;;5076979;28;20228;-66
2022/11/06 04:17:27;;;;;;;13.53;5.80;;;;;;;;;;5058616;28;20677;-67
2022/11/06 04:19:54;;;;;;;21.43;6.60;;;;;;;;;;5058551;28;20186;-65
2022/11/06 04:22:26;;;;;;;14.20;6.27;;;;;;;;;;5076571;28;20185;-66
2022/11/06 04:28:08;;;;;;;14.83;5.37;;;;;;;;;;5076490;28;20262;-67
2022/11/06 04:30:38;;;;;;;9.30;4.27;;;;;;;;;;5076578;28;20546;-66
2022/11/06 04:33:07;;;;;;;11.40;4.60;;;;;;;;;;5076579;28;20619;-67
2022/11/06 04:35:40;;;;;;;7.97;3.67;;;;;;;;;;5058712;28;20234;-66
2022/11/06 04:38:06;;;;;;;13.43;4.00;;;;;;;;;;5076845;28;20197;-67
2022/11/06 04:40:32;;;;;;;7.63;3.47;;;;;;;;;;5076048;28;20669;-67
2022/11/06 04:42:58;;;;;;;9.57;4.13;;;;;;;;;;5058011;28;20178;-67
2022/11/06 04:45:26;;;;;;;13.70;4.20;;;;;;;;;;5057923;28;20178;-66
2022/11/06 04:47:53;;;;;;;13.13;3.90;;;;;;;;;;5075734;28;20279;-67
2022/11/06 04:50:21;;;;;;;13.27;4.27;;;;;;;;;;5075747;28;20193;-66
2022/11/06 04:52:48;;;;;;;8.87;4.33;;;;;;;;;;5075711;28;20174;-66
2022/11/06 04:55:13;;;;;;;9.53;4.37;;;;;;;;;;5075826;28;20170;-68
2022/11/06 04:57:39;;;;;;;8.83;4.10;;;;;;;;;;5057526;28;20198;-67
2022/11/06 05:00:06;;;;;;;10.60;3.80;;;;;;;;;;5076184;28;20180;-67
2022/11/06 05:02:32;;;;;;;7.23;4.63;;;;;;;;;;5075797;28;20181;-67
2022/11/06 05:04:58;;;;;;;8.93;3.70;;;;;;;;;;5057594;28;20174;-66
2022/11/06 05:07:24;;;;;;;6.47;3.83;;;;;;;;;;5075589;28;20255;-66
2022/11/06 05:09:50;;;;;;;8.27;3.53;;;;;;;;;;5075327;28;20284;-66
2022/11/06 05:12:16;;;;;;;7.50;3.93;;;;;;;;;;5075514;28;20255;-67
2022/11/06 05:14:42;;;;;;;11.97;4.43;;;;;;;;;;5075462;28;20690;-65
2022/11/06 05:17:08;;;;;;;9.53;3.97;;;;;;;;;;5057457;28;20193;-66
2022/11/06 05:19:34;;;;;;;8.90;3.87;;;;;;;;;;5056935;28;20274;-67
2022/11/06 05:24:44;;;;;;;6.90;3.80;;;;;;;;;;5075669;28;20169;-67
2022/11/06 05:27:10;;;;;;;11.63;4.30;;;;;;;;;;5075209;28;20198;-66
2022/11/06 05:29:36;;;;;;;8.90;4.63;;;;;;;;;;5057277;28;20205;-68
2022/11/06 05:32:02;;;;;;;10.87;4.03;;;;;;;;;;5075267;28;20178;-67
2022/11/06 05:34:28;;;;;;;9.77;4.07;;;;;;;;;;5075145;28;20178;-66
2022/11/06 05:36:54;;;;;;;8.97;4.07;;;;;;;;;;5075125;28;20213;-68
2022/11/06 05:39:20;;;;;;;10.20;4.00;;;;;;;;;;5057126;28;20192;-67
2022/11/06 05:41:46;;;;;;;9.17;4.20;;;;;;;;;;5075614;28;20233;-67
2022/11/06 05:44:12;;;;;;;12.20;4.60;;;;;;;;;;5075268;28;20529;-67
2022/11/06 05:46:38;;;;;;;9.10;4.60;;;;;;;;;;5056807;28;20616;-67
2022/11/06 05:49:04;;;;;;;9.17;4.40;;;;;;;;;;5075029;28;20332;-67
2022/11/06 05:51:30;;;;;;;10.67;4.30;;;;;;;;;;5075002;28;20626;-66
2022/11/06 05:53:56;;;;;;;10.90;4.27;;;;;;;;;;5075083;28;20177;-66
2022/11/06 05:56:22;;;;;;;8.17;3.83;;;;;;;;;;5056747;28;20189;-68
2022/11/06 05:58:48;;;;;;;10.83;4.13;;;;;;;;;;5074656;28;20178;-66
2022/11/06 06:01:14;;;;;;;9.50;3.83;;;;;;;;;;5056839;28;20181;-67
2022/11/06 06:03:40;;;;;;;9.00;3.50;;;;;;;;;;5074576;28;20235;-67
2022/11/06 06:06:06;;;;;;;11.90;4.53;;;;;;;;;;5056766;28;20633;-65
2022/11/06 06:08:32;;;;;;;7.13;3.70;;;;;;;;;;5056474;28;20220;-68
2022/11/06 06:10:58;;;;;;;9.10;3.67;;;;;;;;;;5074523;28;20173;-66
2022/11/06 06:13:23;;;;;;;8.13;4.40;;;;;;;;;;5056630;28;20173;-65
2022/11/06 06:15:49;;;;;;;14.33;3.73;;;;;;;;;;5074334;28;20181;-67
2022/11/06 06:18:15;;;;;;;8.97;3.87;;;;;;;;;;5074360;28;20202;-65
2022/11/06 06:20:41;;;;;;;9.13;3.97;;;;;;;;;;5074149;28;20692;-66
2022/11/06 06:23:07;;;;;;;10.77;4.20;;;;;;;;;;5074727;28;20707;-67
2022/11/06 06:25:33;;;;;;;7.50;3.93;;;;;;;;;;5074208;28;20194;-65
2022/11/06 06:27:59;;;;;;;12.43;4.30;;;;;;;;;;5074131;28;20193;-68
2022/11/06 06:30:25;;;;;;;7.70;3.63;;;;;;;;;;5056236;28;20268;-67
2022/11/06 06:32:51;;;;;;;9.50;4.23;;;;;;;;;;5073994;28;20174;-68
2022/11/06 06:35:17;;;;;;;7.00;3.83;;;;;;;;;;5074229;28;20166;-66
2022/11/06 06:37:50;;;;;;;13.07;3.80;;;;;;;;;;5074314;28;20204;-66
2022/11/06 06:40:16;;;;;;;12.17;4.40;;;;;;;;;;5056188;28;20562;-65
2022/11/06 06:42:41;;;;;;;13.90;3.63;;;;;;;;;;5074716;28;20181;-65
2022/11/06 06:45:07;;;;;;;9.70;5.03;;;;;;;;;;5056222;28;20214;-66
2022/11/06 06:47:33;;;;;;;8.57;3.90;;;;;;;;;;5056166;28;20227;-65
2022/11/06 06:49:59;;;;;;;9.10;3.80;;;;;;;;;;5056279;28;20209;-65
2022/11/06 06:52:25;;;;;;;10.17;4.10;;;;;;;;;;5074769;28;20178;-66
2022/11/06 06:54:51;;;;;;;11.80;4.73;;;;;;;;;;5055787;28;20550;-67
2022/11/06 06:57:17;;;;;;;11.33;3.43;;;;;;;;;;5074291;28;20536;-67
2022/11/06 06:59:43;;;;;;;9.73;3.43;;;;;;;;;;5073762;28;20216;-66
2022/11/06 07:02:09;;;;;;;9.60;4.20;;;;;;;;;;5055983;28;20189;-67
2022/11/06 07:04:35;;;;;;;8.83;4.83;;;;;;;;;;5073794;28;20324;-65
2022/11/06 07:07:01;;;;;;;10.17;4.80;;;;;;;;;;5055708;28;20202;-66
2022/11/06 07:09:29;;;;;;;13.97;4.07;;;;;;;;;;5055555;28;20257;-67
2022/11/06 07:11:55;;;;;;;10.47;3.80;;;;;;;;;;5073553;28;20548;-66
2022/11/06 07:14:21;;;;;;;5.43;3.70;;;;;;;;;;5055643;28;20178;-67
2022/11/06 07:16:47;;;;;;;6.37;4.17;;;;;;;;;;5056996;28;20263;-65
2022/11/06 07:19:13;;;;;;;10.37;4.60;;;;;;;;;;5073972;28;20181;-66
2022/11/06 07:21:39;;;;;;;10.03;4.20;;;;;;;;;;5074466;28;20591;-67
2022/11/06 07:24:05;;;;;;;8.47;3.90;;;;;;;;;;5074672;28;20645;-67
2022/11/06 07:26:31;;;;;;;10.17;4.30;;;;;;;;;;5074681;28;20205;-66
2022/11/06 07:28:57;;;;;;;9.10;4.27;;;;;;;;;;5055893;28;20689;-66
2022/11/06 07:31:23;;;;;;;8.90;3.80;;;;;;;;;;5074068;28;20176;-65
2022/11/06 07:33:49;;;;;;;7.97;4.20;;;;;;;;;;5055963;28;20177;-65
2022/11/06 07:36:15;;;;;;;9.83;4.50;;;;;;;;;;5073700;28;20224;-66
2022/11/06 07:38:41;;;;;;;11.83;4.23;;;;;;;;;;5073870;28;20557;-65
2022/11/06 07:41:09;;;;;;;9.97;4.23;;;;;;;;;;5073239;28;20189;-66
2022/11/06 07:43:35;;;;;;;12.07;4.17;;;;;;;;;;5056065;28;20645;-67
2022/11/06 07:46:03;;;;;;;12.40;4.10;;;;;;;;;;5077301;28;20530;-67
2022/11/06 07:48:29;;;;;;;7.30;4.17;;;;;;;;;;5077002;28;20209;-68
2022/11/06 07:53:37;;;;;;;9.73;3.67;;;;;;;;;;5074737;28;20241;-69
2022/11/06 07:56:03;;;;;;;10.47;3.50;;;;;;;;;;5059386;28;20190;-70
2022/11/06 07:58:29;;;;;;;10.07;3.90;;;;;;;;;;5077398;28;20178;-69
2022/11/06 08:00:56;;;;;;;7.47;3.40;;;;;;;;;;5077173;28;20653;-69
2022/11/06 08:03:23;;;;;;;10.27;3.97;;;;;;;;;;5077142;28;20199;-70
2022/11/06 08:05:49;;;;;;;6.93;4.03;;;;;;;;;;5077119;28;20181;-70
2022/11/06 08:08:15;;;;;;;11.93;3.97;;;;;;;;;;5059107;28;20231;-69
2022/11/06 08:10:42;;;;;;;14.30;4.10;;;;;;;;;;5077339;28;20181;-69
2022/11/06 08:13:12;;;;;;;7.10;3.67;;;;;;;;;;5059186;28;20198;-69
2022/11/06 08:15:38;;;;;;;8.83;4.40;;;;;;;;;;5059124;28;20182;-69
2022/11/06 08:18:05;;;;;;;8.07;4.27;;;;;;;;;;5077003;28;20178;-69
2022/11/06 08:20:31;;;;;;;9.50;4.23;;;;;;;;;;5059219;28;20320;-69
2022/11/06 08:22:58;;;;;;;10.90;4.20;;;;;;;;;;5076987;28;20689;-69
2022/11/06 08:25:24;;;;;;;13.17;4.13;;;;;;;;;;5077323;28;20630;-69
2022/11/06 08:27:50;;;;;;;9.10;3.80;;;;;;;;;;5077239;28;20170;-69
2022/11/06 08:30:16;;;;;;;12.13;4.47;;;;;;;;;;5082176;28;20666;-69
2022/11/06 08:32:42;;;;;;;10.77;3.90;;;;;;;;;;5091317;28;20688;-69
2022/11/06 08:35:08;;;;;;;9.93;4.67;;;;;;;;;;5069708;28;20630;-70
2022/11/06 08:37:35;;;;;;;12.03;3.97;;;;;;;;;;5064145;28;20228;-69
2022/11/06 08:40:01;;;;;;;9.03;3.57;;;;;;;;;;5078380;28;20173;-69
2022/11/06 08:42:27;;;;;;;9.77;4.23;;;;;;;;;;5076392;28;20224;-69
2022/11/06 08:44:53;;;;;;;9.83;4.50;;;;;;;;;;5076015;28;20181;-69
2022/11/06 08:47:19;;;;;;;5.80;3.60;;;;;;;;;;5075930;28;20265;-70
2022/11/06 08:49:45;;;;;;;9.90;3.57;;;;;;;;;;5057938;28;20205;-69
2022/11/06 08:52:11;;;;;;;10.30;4.23;;;;;;;;;;5057848;28;20344;-69
2022/11/06 08:54:37;;;;;;;14.80;4.27;;;;;;;;;;5057698;28;20240;-70
2022/11/06 08:57:03;;;;;;;7.63;3.70;;;;;;;;;;5057743;28;20182;-69
2022/11/06 08:59:29;;;;;;;8.83;3.43;;;;;;;;;;5057808;28;20231;-69
2022/11/06 09:01:56;;;;;;;8.83;3.80;;;;;;;;;;5058105;28;20209;-70
2022/11/06 09:04:22;;;;;;;12.07;4.60;;;;;;;;;;5057869;28;20559;-70
2022/11/06 09:06:48;;;;;;;10.47;3.80;;;;;;;;;;5057752;28;20186;-70
2022/11/06 09:09:14;;;;;;;14.07;4.47;;;;;;;;;;5075533;28;20552;-70
2022/11/06 09:11:40;;;;;;;13.77;4.90;;;;;;;;;;5075773;28;20581;-70
2022/11/06 09:14:06;;;;;;;10.17;4.00;;;;;;;;;;5057490;28;20189;-70
2022/11/06 09:16:32;;;;;;;9.80;4.07;;;;;;;;;;5057375;28;20174;-70
2022/11/06 09:18:58;;;;;;;9.33;4.03;;;;;;;;;;5057762;28;20174;-70
2022/11/06 09:21:24;;;;;;;9.23;4.23;;;;;;;;;;5075939;28;20208;-70
2022/11/06 09:23:50;;;;;;;13.03;4.27;;;;;;;;;;5057581;28;20178;-69
2022/11/06 09:26:16;;;;;;;11.00;3.90;;;;;;;;;;5057418;28;20280;-69
2022/11/06 09:28:42;;;;;;;13.87;4.30;;;;;;;;;;5057472;28;20306;-69
2022/11/06 09:31:08;;;;;;;8.27;3.60;;;;;;;;;;5075224;28;20173;-70
2022/11/06 09:33:35;;;;;;;11.27;4.20;;;;;;;;;;5057154;28;20188;-70
2022/11/06 09:36:07;;;;;;;9.03;3.67;;;;;;;;;;5075081;28;20560;-70
2022/11/06 09:38:33;;;;;;;7.37;3.27;;;;;;;;;;5075248;28;20239;-70
2022/11/06 09:41:00;;;;;;;5.80;2.80;;;;;;;;;;5057137;28;20646;-70
2022/11/06 09:43:39;;;;;;;6.37;3.50;;;;;;;;;;5074821;28;20174;-70
2022/11/06 09:46:08;;;;;;;6.77;3.10;;;;;;;;;;5074924;28;20170;-70
2022/11/06 09:48:37;;;;;;;7.07;2.77;;;;;;;;;;5074732;28;20587;-70
2022/11/06 09:51:17;;;;;;;15.87;3.53;;;;;;;;;;5056716;28;20642;-69
2022/11/06 09:53:46;;;;;;;9.83;3.53;;;;;;;;;;5056858;28;20170;-70
2022/11/06 09:56:12;;;;;;;9.13;3.63;;;;;;;;;;5073587;28;20408;-70
2022/11/06 09:58:40;;;;;;;6.87;3.87;;;;;;;;;;5056574;28;20202;-69
2022/11/06 10:01:16;;;;;;;11.00;3.83;;;;;;;;;;5074752;28;20168;-70
2022/11/06 10:03:47;;;;;;;11.00;4.33;;;;;;;;;;5074781;28;20172;-70
2022/11/06 10:06:13;;;;;;;7.50;3.90;;;;;;;;;;5056003;28;20661;-70
2022/11/06 10:08:42;;;;;;;9.90;4.53;;;;;;;;;;5074901;28;20706;-69
2022/11/06 10:11:15;;;;;;;11.20;4.90;;;;;;;;;;5056648;28;20650;-70
2022/11/06 10:13:56;;;;;;;8.27;4.10;;;;;;;;;;5074736;28;20174;-70
2022/11/06 10:16:27;;;;;;;12.97;3.70;;;;;;;;;;5074475;28;20481;-70
2022/11/06 10:19:12;;;;;;;8.13;3.57;;;;;;;;;;5056644;28;20277;-71
2022/11/06 10:22:03;;;;;;;5.63;3.07;;;;;;;;;;5074210;28;20204;-70
2022/11/06 10:24:38;;;;;;;4.90;2.83;;;;;;;;;;5056282;28;20242;-70
2022/11/06 10:27:08;;;;;;;7.43;3.17;;;;;;;;;;5074019;28;20182;-70
2022/11/06 10:29:52;;;;;;;8.10;3.70;;;;;;;;;;5055963;28;20204;-70
2022/11/06 10:32:18;;;;;;;9.60;3.27;;;;;;;;;;5074036;28;20621;-70
2022/11/06 10:34:46;;;;;;;9.60;3.40;;;;;;;;;;5073918;28;20174;-70
2022/11/06 10:37:30;;;;;;;9.23;3.67;;;;;;;;;;5055917;28;20257;-70
2022/11/06 10:39:57;;;;;;;13.70;4.97;;;;;;;;;;5073788;28;20178;-70
2022/11/06 10:42:29;;;;;;;8.47;4.00;;;;;;;;;;5055798;28;20202;-70
2022/11/06 10:45:01;;;;;;;8.77;3.40;;;;;;;;;;5055835;28;20261;-70
2022/11/06 10:47:32;;;;;;;6.83;3.60;;;;;;;;;;5073949;28;20173;-70
2022/11/06 10:49:59;;;;;;;11.97;3.60;;;;;;;;;;5073570;28;20280;-70
2022/11/06 10:52:34;;;;;;;11.17;3.70;;;;;;;;;;5055424;28;20705;-70
2022/11/06 10:55:06;;;;;;;8.03;3.60;;;;;;;;;;5055631;28;20229;-70
2022/11/06 10:57:32;;;;;;;8.83;3.90;;;;;;;;;;5073550;28;20276;-70
2022/11/06 10:59:58;;;;;;;7.33;4.17;;;;;;;;;;5073919;28;20181;-70
2022/11/06 11:02:35;;;;;;;6.83;3.00;;;;;;;;;;5073574;28;20201;-70
2022/11/06 11:05:01;;;;;;;10.43;3.70;;;;;;;;;;5055491;28;20188;-70
2022/11/06 11:07:30;;;;;;;8.37;3.50;;;;;;;;;;5055519;28;20719;-70
2022/11/06 11:09:56;;;;;;;7.43;3.00;;;;;;;;;;5073683;28;20201;-70
2022/11/06 11:12:29;;;;;;;6.80;2.67;;;;;;;;;;5073367;28;20205;-70
2022/11/06 11:15:12;;;;;;;11.57;3.37;;;;;;;;;;5074716;28;20706;-70
2022/11/06 11:17:39;;;;;;;8.00;3.57;;;;;;;;;;5074631;28;20174;-69
2022/11/06 11:20:25;;;;;;;8.23;3.00;;;;;;;;;;5075200;28;20208;-70
2022/11/06 11:23:13;;;;;;;11.30;3.43;;;;;;;;;;5074630;28;20201;-70
2022/11/06 11:25:38;;;;;;;7.43;3.47;;;;;;;;;;5055437;28;20181;-70
2022/11/06 11:28:04;;;;;;;6.37;3.10;;;;;;;;;;5055370;28;20174;-70
2022/11/06 11:30:30;;;;;;;6.77;2.83;;;;;;;;;;5073033;28;20208;-70
2022/11/06 11:32:57;;;;;;;6.03;2.80;;;;;;;;;;5073178;28;20556;-70
2022/11/06 11:35:28;;;;;;;6.87;2.90;;;;;;;;;;5073428;28;20170;-70
2022/11/06 11:38:04;;;;;;;10.67;3.10;;;;;;;;;;5073796;28;20162;-70
2022/11/06 11:40:34;;;;;;;6.00;2.97;;;;;;;;;;5055145;28;20597;-71
2022/11/06 11:43:15;;;;;;;6.97;2.77;;;;;;;;;;5055285;28;20211;-70
2022/11/06 11:45:41;;;;;;;8.50;3.07;;;;;;;;;;5073360;28;20649;-69
2022/11/06 11:48:12;;;;;;;8.63;3.17;;;;;;;;;;5073297;28;20186;-70
2022/11/06 11:50:38;;;;;;;6.47;2.57;;;;;;;;;;5055063;28;20236;-70
2022/11/06 11:53:13;;;;;;;6.30;2.77;;;;;;;;;;5072965;28;20645;-70
2022/11/06 11:55:41;;;;;;;8.13;3.07;;;;;;;;;;5073004;28;20212;-71
2022/11/06 11:58:15;;;;;;;8.87;3.17;;;;;;;;;;5073118;28;20531;-70
2022/11/06 12:00:48;;;;;;;6.30;2.33;;;;;;;;;;5054987;28;20169;-70
2022/11/06 12:03:14;;;;;;;5.67;2.70;;;;;;;;;;5072894;28;20207;-70
2022/11/06 12:05:40;;;;;;;6.10;3.30;;;;;;;;;;5072872;28;20227;-70
2022/11/06 12:08:12;;;;;;;5.23;2.50;;;;;;;;;;5073271;28;20237;-70
2022/11/06 12:10:39;;;;;;;6.07;2.90;;;;;;;;;;5073391;28;20242;-70
2022/11/06 12:13:17;;;;;;;6.53;2.73;;;;;;;;;;5072828;28;20205;-70
2022/11/06 12:15:43;;;;;;;9.90;3.80;;;;;;;;;;5055075;28;20173;-70
2022/11/06 12:18:14;;;;;;;5.27;2.73;;;;;;;;;;5073339;28;20174;-70
2022/11/06 12:20:51;;;;;;;7.03;2.50;;;;;;;;;;5073447;28;20189;-71
2022/11/06 12:23:29;;;;;;;4.90;3.00;;;;;;;;;;5072971;28;20570;-70
2022/11/06 12:26:18;;;;;;;5.40;2.40;;;;;;;;;;5072786;28;20173;-70
2022/11/06 12:28:45;;;;;;;4.77;2.80;;;;;;;;;;5044199;28;20193;-69
2022/11/06 12:31:18;;;;;;;7.83;2.80;;;;;;;;;;5057815;28;20348;-69
2022/11/06 12:33:47;;;;;;;4.47;2.53;;;;;;;;;;5058324;28;20170;-70
2022/11/06 12:36:15;;;;;;;6.20;2.93;;;;;;;;;;5076574;28;20530;-71
2022/11/06 12:38:45;;;;;;;5.27;2.40;;;;;;;;;;5076279;28;20174;-70
2022/11/06 12:41:20;;;;;;;7.10;3.10;;;;;;;;;;5058116;28;20177;-69
2022/11/06 12:43:47;;;;;;;7.43;3.17;;;;;;;;;;5076392;28;20202;-70
2022/11/06 12:46:21;;;;;;;4.93;2.80;;;;;;;;;;5075940;28;20225;-70
2022/11/06 12:48:52;;;;;;;6.60;3.53;;;;;;;;;;5076122;28;20317;-70
2022/11/06 12:51:24;;;;;;;7.00;4.70;;;;;;;;;;5057867;28;20654;-70
2022/11/06 12:53:57;;;;;;;6.30;3.17;;;;;;;;;;5076418;28;20681;-70
2022/11/06 12:56:28;;;;;;;6.33;3.03;;;;;;;;;;5076116;28;20162;-70
2022/11/06 12:58:54;;;;;;;3.73;2.73;;;;;;;;;;5058015;28;20197;-70
2022/11/06 13:01:39;;;;;;;5.10;3.00;;;;;;;;;;5075921;28;20218;-70
2022/11/06 13:04:11;;;;;;;6.33;2.93;;;;;;;;;;5075749;28;20181;-70
2022/11/06 13:06:40;;;;;;;5.90;2.70;;;;;;;;;;5057708;28;20231;-71
2022/11/06 13:09:06;;;;;;;5.03;3.03;;;;;;;;;;5057453;28;20201;-70
2022/11/06 13:11:39;;;;;;;5.17;2.50;;;;;;;;;;5075506;28;20244;-70
2022/11/06 13:14:17;;;;;;;8.47;3.03;;;;;;;;;;5057475;28;20223;-70
2022/11/06 13:16:43;;;;;;;8.30;2.77;;;;;;;;;;5057692;28;20215;-70
2022/11/06 13:19:27;;;;;;;8.30;3.30;;;;;;;;;;5057538;28;20186;-70
2022/11/06 13:22:05;;;;;;;8.30;4.97;;;;;;;;;;5075352;28;20277;-70
2022/11/06 13:24:34;;;;;;;6.93;3.37;;;;;;;;;;5075259;28;20261;-69
2022/11/06 13:27:08;;;;;;;8.60;3.67;;;;;;;;;;5075311;28;20180;-70
2022/11/06 13:29:34;;;;;;;8.03;3.00;;;;;;;;;;5057312;28;20197;-70
2022/11/06 13:32:02;;;;;;;6.87;3.47;;;;;;;;;;5075105;28;20195;-70
2022/11/06 13:34:36;;;;;;;7.57;3.53;;;;;;;;;;5057120;28;20181;-70
2022/11/06 13:37:03;;;;;;;9.50;3.40;;;;;;;;;;5057266;28;20181;-70
2022/11/06 13:39:32;;;;;;;5.23;3.27;;;;;;;;;;5075285;28;20184;-69
2022/11/06 13:41:59;;;;;;;5.90;3.20;;;;;;;;;;5055804;28;20251;-70
2022/11/06 13:44:26;;;;;;;9.77;4.00;;;;;;;;;;5056932;28;20269;-69
2022/11/06 13:46:58;;;;;;;4.80;3.10;;;;;;;;;;5056921;28;20192;-70
2022/11/06 13:49:30;;;;;;;9.10;3.37;;;;;;;;;;5074654;28;20202;-70
2022/11/06 13:51:58;;;;;;;5.67;3.33;;;;;;;;;;5074651;28;20210;-70
2022/11/06 13:54:24;;;;;;;8.47;3.93;;;;;;;;;;5075055;28;20174;-70
2022/11/06 13:56:59;;;;;;;9.13;3.63;;;;;;;;;;5074864;28;20277;-70
2022/11/06 13:59:45;;;;;;;6.50;4.77;;;;;;;;;;5056762;28;20174;-70
2022/11/06 14:02:31;;;;;;;7.23;3.67;;;;;;;;;;5074900;28;20258;-70
2022/11/06 14:05:16;;;;;;;7.03;3.57;;;;;;;;;;5074271;28;20236;-70
2022/11/06 14:07:42;;;;;;;8.10;2.83;;;;;;;;;;5074383;28;20188;-69
2022/11/06 14:10:19;;;;;;;8.77;4.23;;;;;;;;;;5056460;28;20201;-69
2022/11/06 14:12:47;;;;;;;5.43;2.53;;;;;;;;;;5074492;28;20247;-69
2022/11/06 14:15:16;;;;;;;6.40;3.30;;;;;;;;;;5074261;28;20731;-70
2022/11/06 14:17:53;;;;;;;5.17;3.40;;;;;;;;;;5056890;28;20182;-70
2022/11/06 14:20:30;;;;;;;5.93;3.20;;;;;;;;;;5074559;28;20170;-69
2022/11/06 14:23:16;;;;;;;8.80;3.47;;;;;;;;;;5074167;28;20202;-69
2022/11/06 14:25:42;;;;;;;6.67;2.57;;;;;;;;;;5073923;28;20654;-70
2022/11/06 14:28:08;;;;;;;4.90;2.60;;;;;;;;;;5076824;28;20189;-70
2022/11/06 14:30:36;;;;;;;8.00;3.27;;;;;;;;;;5082215;28;20204;-70
2022/11/06 14:33:02;;;;;;;3.77;2.83;;;;;;;;;;5082041;28;20217;-70
2022/11/06 14:35:28;;;;;;;4.53;2.90;;;;;;;;;;5062484;28;20181;-70
2022/11/06 14:38:09;;;;;;;5.73;3.50;;;;;;;;;;5074421;28;20222;-70
2022/11/06 14:40:36;;;;;;;6.10;2.87;;;;;;;;;;5074160;28;20185;-70
2022/11/06 14:43:16;;;;;;;4.43;2.53;;;;;;;;;;5056141;28;20201;-70
2022/11/06 14:45:49;;;;;;;5.23;4.00;;;;;;;;;;5075004;28;20174;-69
2022/11/06 14:48:24;;;;;;;5.87;4.53;;;;;;;;;;5074589;28;20174;-69
2022/11/06 14:50:50;;;;;;;7.50;4.17;;;;;;;;;;5056215;28;20255;-70
2022/11/06 14:53:19;;;;;;;10.67;4.57;;;;;;;;;;5055668;28;20697;-69
2022/11/06 14:55:55;;;;;;;8.97;3.90;;;;;;;;;;5056046;28;20184;-69
2022/11/06 14:58:21;;;;;;;6.53;4.40;;;;;;;;;;5055960;28;20170;-70
2022/11/06 15:00:55;;;;;;;7.73;4.30;;;;;;;;;;5074628;28;20181;-70
2022/11/06 15:03:21;;;;;;;11.07;4.07;;;;;;;;;;5073683;28;20205;-70
2022/11/06 15:05:48;;;;;;;7.07;4.20;;;;;;;;;;5055902;28;20557;-70